Tiempo atmosférico en la estación meteorológica de Benabarre, Huesca (765 m.)

Fecha
DESCASC
Temp. máxima en grados centígrados (hora)
DESCASC
Temp. mínima en grados centígrados (hora)
DESCASC
Temp. media en grados centígrados
DESCASC
Racha de viento máxima en m/sg (hora)
DESCASC
Velocidad máxima media en intervalos de 10 minutos(hora)
DESCASC
Precipitaciones diarias en mm
DESCASC
Precipitaciones de 00:00 a 06:00 en mm
DESCASC
Precipitaciones de 06:00 a 12:00 en mm
DESCASC
Precipitaciones de 12:00 a 18:00 en mm
DESCASC
Precipitaciones de 18:00 a 24:00 en mm
DESCASC
17-09-2017 19.1 (16:40) 4.1 (07:30) 11.6 8.61 (12:50) 4.44 (18:40) 0 0 0 0 0
16-09-2017 17.2 (18:30) 5.5 (03:50) 11.4 13.06 (18:10) 6.94 (18:10) 0.2 0 0.2 0 0
15-09-2017 14.8 (00:00) 7.6 (23:59) 11.2 6.11 (01:30) 3.61 (05:20) 15.6 8.2 7.4 0 0
14-09-2017 26.1 (15:10) 11.9 (00:00) 19 14.44 (17:20) 8.61 (17:20) 0 0 0 0 0
13-09-2017 27.2 (17:20) 9.4 (00:00) 18.3 7.5 (15:40) 4.17 (15:40) 0 0 0 0 0
12-09-2017 24.2 (16:20) 9.5 (00:00) 16.9 11.11 (01:50) 6.94 (19:00) 0 0 0 0 0
11-09-2017 25.5 (14:40) 10.2 (00:00) 17.8 18.61 (18:50) 12.78 (19:10) 0 0 0 0 0
10-09-2017 23.3 (15:50) 7.5 (00:00) 15.4 12.78 (15:40) 7.22 (12:30) 0 0 0 0 0
09-09-2017 20.8 (18:00) 11.3 (00:00) 16 10.56 (19:40) 6.67 (19:40) 3.4 0 3.4 0 0
08-09-2017 25.9 (18:20) 9.3 (00:00) 17.6 7.78 (16:20) 3.89 (16:20) 0 0 0 0 0
07-09-2017 24.6 (17:50) 10 (00:00) 17.3 7.5 (15:00) 4.17 (15:00) 0 0 0 0 0
06-09-2017 27.5 (17:40) 15.3 (00:00) 21.4 9.17 (17:40) 5.56 (18:40) 0 0 0 0 0
05-09-2017 29.9 (17:30) 15 (00:00) 22.4 7.78 (18:00) 4.72 (13:40) 0 0 0 0 0
04-09-2017 27.9 (14:30) 14 (00:00) 20.9 9.72 (17:30) 5.83 (17:40) 0.4 0.4 0 0 0
03-09-2017 25.1 (16:50) 9.4 (00:00) 17.3 8.89 (16:40) 5 (16:40) 0 0 0 0 0
02-09-2017 24.6 (16:50) 8 (00:00) 16.3 9.17 (18:40) 5 (18:40) 0 0 0 0 0
01-09-2017 24 (16:30) 11.6 (00:00) 17.8 11.39 (18:50) 6.39 (17:50) 0 0 0 0 0
31-08-2017 24.5 (16:20) 13.3 (00:00) 18.9 11.67 (17:50) 6.67 (12:50) 0 0 0 0 0
30-08-2017 26.5 (15:40) 15.6 (00:00) 21.1 8.61 (13:50) 5.28 (05:30) 0.6 0.2 0 0 0.4
29-08-2017 27.4 (16:00) 15.9 (00:00) 21.6 11.11 (18:30) 6.67 (18:30) 0.4 0 0 0 0.4
28-08-2017 33.9 (15:00) 16.3 (00:00) 25.1 10.83 (17:00) 6.67 (17:00) 0.2 0 0 0 0.2
27-08-2017 33.6 (15:00) 18.6 (00:00) 26.1 12.22 (18:30) 7.78 (18:30) 1 0 0 0 1
26-08-2017 32.7 (16:50) 18.4 (00:00) 25.6 11.67 (21:20) 7.78 (21:40) 0.2 0 0 0 0.2
25-08-2017 31.4 (16:30) 19.6 (00:00) 25.5 11.39 (20:40) 7.22 (16:00) 0 0 0 0 0
24-08-2017 31.4 (18:10) 17.3 (00:00) 24.3 13.33 (02:30) 9.17 (02:30) 1.8 1.8 0 0 0
23-08-2017 31.8 (15:50) 18.2 (00:00) 25 9.72 (17:30) 5.56 (15:20) 0 0 0 0 0
22-08-2017 33.5 (15:30) 16.1 (00:00) 24.8 7.22 (17:40) 4.17 (17:40) 0 0 0 0 0

Gráficas

Temp. máximas Temp. mínimas Temp. medias Precipitaciones Rachas de viento máximas Velocidades máximas media en intervalos de 10 minutos

Datos horarios

Fecha y hora oficial Temperatura (ºC) Velocidad del viento (km/h) Dirección del viento Racha (km/h) Dirección de racha Precipitación (mm) Presión (hPa) Tendencia (hPa) Humedad (%)
2017-09-20 23:00:00 10.9 8 Norte 12 Noroeste 0 -- -- 65
2017-09-20 22:00:00 11.5 9 Norte 12 Norte 0 -- -- 64
2017-09-20 21:00:00 12.7 8 Noroeste 10 Norte 0 -- -- 61
2017-09-20 20:00:00 18 6 Noroeste 13 Sudoeste 0 -- -- 44
2017-09-20 19:00:00 20.8 9 Oeste 13 Oeste 0 -- -- 36
2017-09-20 18:00:00 23 2 Sur 13 Sur 0 -- -- 30
2017-09-20 17:00:00 22.2 9 Sudeste 21 Sudoeste 0 -- -- 32
2017-09-20 16:00:00 21.1 9 Sur 20 Sur 0 -- -- 33
2017-09-20 15:00:00 20.6 8 Sur 19 Sudoeste 0 -- -- 35
2017-09-20 14:00:00 20.8 4 Sudoeste 16 Noroeste 0 -- -- 35
2017-09-20 13:00:00 18.7 8 Oeste 15 Sur 0 -- -- 35
2017-09-20 12:00:00 17.7 5 Sudoeste 13 Sur 0 -- -- 33
2017-09-20 11:00:00 17.1 8 Sudeste 15 Este 0 -- -- 32
2017-09-20 10:00:00 14 5 Sudoeste 8 Sudoeste 0 -- -- 44
2017-09-20 09:00:00 10.8 6 Norte 11 Noroeste 0 -- -- 55
2017-09-20 08:00:00 6.9 9 Norte 13 Nordeste 0 -- -- 66
2017-09-20 07:00:00 6.4 8 Nordeste 14 Nordeste 0 -- -- 65
2017-09-20 06:00:00 6.9 9 Norte 20 Nordeste 0 -- -- 66
2017-09-20 05:00:00 9.2 13 Nordeste 18 Nordeste 0 -- -- 52
2017-09-20 04:00:00 10.4 14 Nordeste 22 Este 0 -- -- 48
2017-09-20 03:00:00 11.7 17 Nordeste 26 Nordeste 0 -- -- 43
2017-09-20 02:00:00 12.3 16 Este 25 Este 0 -- -- 41
2017-09-20 01:00:00 12.5 15 Este 25 Nordeste 0 -- -- 41
2017-09-20 00:00:00 13.3 15 Este 26 Este 0 -- -- 39
2017-09-19 23:00:00 14.1 14 Este 28 Este 0 -- -- 36
2017-09-19 22:00:00 14.8 14 Este 20 Este 0 -- -- 38
2017-09-19 21:00:00 13.9 7 Noroeste 16 Noroeste 0 -- -- 51
2017-09-19 20:00:00 18 9 Noroeste 28 Oeste 0 -- -- 36
2017-09-19 19:00:00 20.5 19 Oeste 30 Oeste 0 -- -- 31
2017-09-19 18:00:00 21.9 12 Oeste 23 Oeste 0 -- -- 26
2017-09-19 17:00:00 21.7 11 Oeste 23 Oeste 0 -- -- 24
2017-09-19 16:00:00 20.4 16 Oeste 28 Oeste 0 -- -- 31
2017-09-19 15:00:00 19.6 11 Oeste 27 Oeste 0 -- -- 30
2017-09-19 14:00:00 18.1 13 Noroeste 22 Sudoeste 0 -- -- 35
2017-09-19 13:00:00 16.7 13 Noroeste 22 Noroeste 0 -- -- 37
2017-09-19 12:00:00 15.7 11 Oeste 17 Oeste 0 -- -- 47
2017-09-19 11:00:00 14.8 8 Oeste 12 Oeste 0 -- -- 48
2017-09-19 10:00:00 13 7 Noroeste 10 Noroeste 0 -- -- 51
2017-09-19 09:00:00 9.9 5 Noroeste 12 Norte 0 -- -- 64
2017-09-19 08:00:00 5.8 10 Norte 13 Noroeste 0 -- -- 78
2017-09-19 07:00:00 5.5 10 Norte 13 Norte 0 -- -- 78
2017-09-19 06:00:00 6.3 9 Noroeste 14 Norte 0 -- -- 74
2017-09-19 05:00:00 6.8 12 Norte 17 Norte 0 -- -- 71
2017-09-19 04:00:00 6.8 13 Norte 18 Norte 0 -- -- 69
2017-09-19 03:00:00 7.2 12 Norte 15 Norte 0 -- -- 71
2017-09-19 02:00:00 8.1 8 Norte 15 Norte 0 -- -- 70
2017-09-19 01:00:00 8.8 9 Noroeste 15 Norte 0 -- -- 79
2017-09-19 00:00:00 10.9 8 Noroeste 13 Norte 0 -- -- 73
2017-09-18 23:00:00 12.9 8 Noroeste 19 Noroeste 0 -- -- 68
2017-09-18 22:00:00 14 9 Noroeste 22 Oeste 0 -- -- 66
2017-09-18 21:00:00 15.7 14 Noroeste 23 Noroeste 0 -- -- 60
2017-09-18 20:00:00 16.8 10 Oeste 28 Oeste 0 -- -- 56
2017-09-18 19:00:00 18.7 15 Oeste 28 Oeste 0 -- -- 50
2017-09-18 18:00:00 19.1 19 Oeste 32 Sudoeste 0 -- -- 49
2017-09-18 17:00:00 19 20 Oeste 35 Noroeste 0 -- -- 49
2017-09-18 16:00:00 19 19 Oeste 34 Oeste 0 -- -- 49
2017-09-18 15:00:00 17.8 16 Oeste 34 Oeste 0 -- -- 54
2017-09-18 14:00:00 17.1 21 Oeste 33 Noroeste 0 -- -- 56
2017-09-18 13:00:00 15.6 10 Noroeste 23 Oeste 0 -- -- 62
2017-09-18 12:00:00 14.3 8 Oeste 19 Noroeste 0 -- -- 72
2017-09-18 11:00:00 11.7 9 Oeste 20 Noroeste 0 -- -- 85
2017-09-18 10:00:00 9.1 13 Noroeste 27 Noroeste 1.6 -- -- 92
2017-09-18 09:00:00 11.3 12 Noroeste 25 Noroeste 0 -- -- 71
2017-09-18 08:00:00 10.4 0 Calma 6 Norte 0 -- -- 76
2017-09-18 07:00:00 10.2 4 Norte 8 Norte 0 -- -- 76
2017-09-18 06:00:00 9.9 6 Norte 9 Norte 0 -- -- 74
2017-09-18 05:00:00 8.8 9 Norte 12 Norte 0 -- -- 77
2017-09-18 04:00:00 9.1 5 Norte 9 Norte 0 -- -- 74
2017-09-18 03:00:00 9.2 7 Norte 12 Norte 0 -- -- 75
2017-09-18 02:00:00 10.5 8 Norte 12 Norte 0 -- -- 71
2017-09-18 01:00:00 12.1 4 Norte 9 Norte 0 -- -- 67
2017-09-18 00:00:00 13.4 4 Este 10 Este 0 -- -- 61
2017-09-17 23:00:00 13.9 8 Este 12 Este 0 -- -- 55
2017-09-17 22:00:00 14.7 4 Sudoeste 14 Sudoeste 0 -- -- 50
2017-09-17 21:00:00 14 5 Norte 8 Norte 0 -- -- 57
2017-09-17 20:00:00 15 5 Norte 16 Oeste 0 -- -- 52
2017-09-17 19:00:00 18.1 12 Oeste 24 Oeste 0 -- -- 40
2017-09-17 18:00:00 19 11 Sudoeste 27 Oeste 0 -- -- 40
2017-09-17 17:00:00 18.8 10 Oeste 28 Oeste 0 -- -- 43
2017-09-17 16:00:00 18.2 14 Oeste 30 Sudoeste 0 -- -- 44
2017-09-17 15:00:00 17.7 14 Oeste 29 Oeste 0 -- -- 45
2017-09-17 14:00:00 16.9 15 Oeste 28 Oeste 0 -- -- 44
2017-09-17 13:00:00 16 13 Oeste 31 Sudoeste 0 -- -- 48
2017-09-17 12:00:00 15 11 Oeste 20 Oeste 0 -- -- 52
2017-09-17 11:00:00 13.5 6 Este 12 Este 0 -- -- 56
2017-09-17 10:00:00 11.9 6 Este 9 Sudeste 0 -- -- 66
2017-09-17 09:00:00 9.6 3 Este 6 Norte 0 -- -- 71
2017-09-17 08:00:00 4.3 4 Norte 9 Norte 0 -- -- 91
2017-09-17 07:00:00 4.3 3 Norte 10 Norte 0 -- -- 89
2017-09-17 06:00:00 4.6 7 Norte 10 Norte 0 -- -- 89
2017-09-17 05:00:00 4.9 4 Nordeste 9 Norte 0 -- -- 89
2017-09-17 04:00:00 5.4 8 Norte 13 Norte 0 -- -- 88
2017-09-17 03:00:00 6.9 2 Oeste 12 Noroeste 0 -- -- 87
2017-09-17 02:00:00 6 10 Norte 14 Norte 0 -- -- 89
2017-09-17 01:00:00 6.1 8 Norte 13 Noroeste 0 -- -- 88
2017-09-17 00:00:00 6.7 10 Norte 15 Norte 0 -- -- 87
2017-09-16 23:00:00 7.3 10 Norte 13 Norte 0 -- -- 84
2017-09-16 22:00:00 8.6 6 Norte 11 Norte 0 -- -- 79
2017-09-16 21:00:00 9.9 9 Norte 21 Norte 0 -- -- 74
2017-09-16 20:00:00 12 14 Norte 33 Oeste 0 -- -- 65
2017-09-16 19:00:00 15.9 22 Oeste 47 Sudoeste 0 -- -- 43
2017-09-16 18:00:00 17.1 17 Sudoeste 37 Sudoeste 0 -- -- 41
2017-09-16 17:00:00 16.7 19 Sudoeste 41 Sudoeste 0 -- -- 46
2017-09-16 16:00:00 15.8 14 Sudoeste 27 Sudoeste 0 -- -- 51
2017-09-16 15:00:00 14.9 12 Noroeste 22 Sudoeste 0 -- -- 57
2017-09-16 14:00:00 13.3 6 Oeste 19 Oeste 0 -- -- 63
2017-09-16 13:00:00 14 4 Noroeste 15 Este 0 -- -- 65
2017-09-16 12:00:00 11.6 3 Noroeste 13 Oeste 0 -- -- 80
2017-09-16 11:00:00 9.7 5 Sudoeste 10 Oeste 0 -- -- 92
2017-09-16 10:00:00 8.1 6 Este 14 Este 0 -- -- 98
2017-09-16 09:00:00 7.3 2 Sudeste 8 Sudeste 0 -- -- 98
2017-09-16 08:00:00 6.8 0 Calma 5 Sudeste 0.2 -- -- 98
2017-09-16 07:00:00 6 2 Nordeste 11 Oeste 0 -- -- 97
2017-09-16 06:00:00 6.8 4 Noroeste 8 Oeste 0 -- -- 98
2017-09-16 05:00:00 6.2 0 Calma 7 Norte 0 -- -- 98
2017-09-16 04:00:00 5.5 7 Norte 8 Norte 0 -- -- 98
2017-09-16 03:00:00 6 2 Norte 8 Norte 0 -- -- 97
2017-09-16 02:00:00 6.2 7 Norte 9 Norte 0 -- -- 97
2017-09-16 01:00:00 6.9 5 Norte 9 Norte 0 -- -- 97
2017-09-16 00:00:00 7.6 4 Noroeste 8 Norte 0 -- -- 95
2017-09-15 23:00:00 8.6 0 Calma 8 Noroeste 0 -- -- 95
2017-09-15 22:00:00 9.4 8 Norte 12 Noroeste 0 -- -- 93
2017-09-15 21:00:00 10.2 2 Noroeste 10 Sudeste 0 -- -- 90
2017-09-15 20:00:00 11.4 6 Este 9 Este 0 -- -- 82
2017-09-15 19:00:00 11.7 5 Sudeste 10 Sudeste 0 -- -- 82
2017-09-15 18:00:00 11.9 8 Sudeste 12 Sudeste 0 -- -- 81
2017-09-15 17:00:00 12.2 8 Oeste 14 Sudoeste 0 -- -- 76
2017-09-15 16:00:00 11.1 6 Oeste 16 Sudoeste 0 -- -- 85
2017-09-15 15:00:00 10.7 9 Oeste 14 Oeste 0 -- -- 88
2017-09-15 14:00:00 10.3 9 Noroeste 18 Oeste 0 -- -- 94
2017-09-15 13:00:00 9.8 10 Oeste 18 Oeste 0 -- -- 95
2017-09-15 12:00:00 9.8 6 Noroeste 16 Oeste 0 -- -- 97
2017-09-15 11:00:00 9.7 6 Oeste 10 Noroeste 0.4 -- -- 96
2017-09-15 10:00:00 9.1 9 Este 14 Sudeste 3 -- -- 96
2017-09-15 09:00:00 9.4 0 Calma 9 Oeste 2.2 -- -- 95
2017-09-15 08:00:00 9.2 9 Este 13 Este 1 -- -- 95
2017-09-15 07:00:00 9.1 5 Este 10 Nordeste 0.8 -- -- 95
2017-09-15 06:00:00 9.3 6 Nordeste 16 Sudeste 4 -- -- 96
2017-09-15 05:00:00 10.2 3 Este 18 Noroeste 2.2 -- -- 94
2017-09-15 04:00:00 10.4 7 Este 16 Sudeste 0.4 -- -- 91
2017-09-15 03:00:00 10.9 9 Norte 14 Este 0.2 -- -- 86
2017-09-15 02:00:00 11.4 7 Sudeste 22 Sur 1.4 -- -- 77
2017-09-15 01:00:00 13.9 8 Sur 16 Sudeste 0 -- -- 60
2017-09-15 00:00:00 14.8 10 Sudeste 15 Este 0 -- -- 51
2017-09-14 23:00:00 15.6 9 Este 12 Este 0 -- -- 46
2017-09-14 22:00:00 15.8 7 Este 13 Nordeste 0 -- -- 46
2017-09-14 21:00:00 18.8 8 Noroeste 31 Oeste 0 -- -- 43
2017-09-14 20:00:00 21.6 22 Oeste 36 Oeste 0 -- -- 40
2017-09-14 19:00:00 24 24 Oeste 43 Sudoeste 0 -- -- 38
2017-09-14 18:00:00 24.6 28 Oeste 52 Oeste 0 -- -- 36
2017-09-14 17:00:00 25.5 28 Oeste 46 Sudoeste 0 -- -- 35
2017-09-14 16:00:00 25.6 26 Sudoeste 47 Sudoeste 0 -- -- 38
2017-09-14 15:00:00 25.9 21 Oeste 38 Sudoeste 0 -- -- 40
2017-09-14 14:00:00 24.7 19 Oeste 35 Oeste 0 -- -- 48
2017-09-14 13:00:00 23.2 13 Oeste 26 Oeste 0 -- -- 53
2017-09-14 12:00:00 21.9 11 Oeste 22 Noroeste 0 -- -- 60
2017-09-14 11:00:00 20.7 14 Noroeste 22 Noroeste 0 -- -- 61
2017-09-14 10:00:00 19.2 10 Noroeste 15 Noroeste 0 -- -- 58
2017-09-14 09:00:00 17.1 4 Norte 9 Norte 0 -- -- 66
2017-09-14 08:00:00 12.5 7 Norte 11 Norte 0 -- -- 80
2017-09-14 07:00:00 12.8 4 Noroeste 9 Norte 0 -- -- 78
2017-09-14 06:00:00 12.8 5 Norte 10 Norte 0 -- -- 79
2017-09-14 05:00:00 13.3 10 Norte 13 Norte 0 -- -- 77
2017-09-14 04:00:00 14.5 8 Norte 11 Norte 0 -- -- 71
2017-09-14 03:00:00 14.5 8 Norte 12 Norte 0 -- -- 74
2017-09-14 02:00:00 14.5 8 Norte 10 Norte 0 -- -- 73
2017-09-14 01:00:00 14.9 8 Norte 10 Norte 0 -- -- 69
2017-09-14 00:00:00 16.3 2 Norte 11 Sudeste 0 -- -- 64
2017-09-13 23:00:00 17.5 4 Este 9 Norte 0 -- -- 59
2017-09-13 22:00:00 17.3 4 Norte 9 Norte 0 -- -- 60
2017-09-13 21:00:00 19.5 5 Sudeste 9 Sudeste 0 -- -- 53
2017-09-13 20:00:00 25.3 2 Oeste 17 Oeste 0 -- -- 39
2017-09-13 19:00:00 26.1 12 Oeste 23 Oeste 0 -- -- 38
2017-09-13 18:00:00 26.3 13 Oeste 25 Sudoeste 0 -- -- 35
2017-09-13 17:00:00 26.8 10 Sudoeste 22 Oeste 0 -- -- 34
2017-09-13 16:00:00 26 8 Sur 27 Sudoeste 0 -- -- 36
2017-09-13 15:00:00 25.2 12 Sudoeste 24 Oeste 0 -- -- 36
2017-09-13 14:00:00 24.9 9 Sur 21 Sudeste 0 -- -- 37
2017-09-13 13:00:00 23.4 10 Sudeste 26 Sudeste 0 -- -- 38
2017-09-13 12:00:00 21.7 8 Sudeste 17 Sudeste 0 -- -- 39
2017-09-13 11:00:00 20.4 8 Este 15 Este 0 -- -- 39
2017-09-13 10:00:00 18 6 Sur 10 Sudeste 0 -- -- 44
2017-09-13 09:00:00 16.5 9 Nordeste 14 Nordeste 0 -- -- 49
2017-09-13 08:00:00 11 0 Calma 10 Norte 0 -- -- 58
2017-09-13 07:00:00 9.6 6 Norte 10 Norte 0 -- -- 59
2017-09-13 06:00:00 10 6 Norte 10 Norte 0 -- -- 58
2017-09-13 05:00:00 9.8 6 Norte 10 Norte 0 -- -- 57
2017-09-13 04:00:00 10.7 4 Norte 10 Norte 0 -- -- 55
2017-09-13 03:00:00 10.3 9 Norte 11 Norte 0 -- -- 54
2017-09-13 02:00:00 10.9 6 Norte 13 Noroeste 0 -- -- 54
2017-09-13 01:00:00 11.1 9 Norte 12 Norte 0 -- -- 57
2017-09-13 00:00:00 11.9 9 Norte 12 Norte 0 -- -- 55
2017-09-12 23:00:00 13.5 6 Noroeste 16 Oeste 0 -- -- 52
2017-09-12 22:00:00 17.1 13 Noroeste 19 Noroeste 0 -- -- 42
2017-09-12 21:00:00 18 15 Noroeste 25 Oeste 0 -- -- 42
2017-09-12 20:00:00 20.5 17 Oeste 31 Sudoeste 0 -- -- 37
2017-09-12 19:00:00 22 25 Oeste 38 Oeste 0 -- -- 32
2017-09-12 18:00:00 23.1 21 Oeste 33 Sudoeste 0 -- -- 31
2017-09-12 17:00:00 23.4 18 Oeste 35 Sudoeste 0 -- -- 31
2017-09-12 16:00:00 23.5 11 Oeste 28 Oeste 0 -- -- 32
2017-09-12 15:00:00 22.1 9 Noroeste 29 Oeste 0 -- -- 36
2017-09-12 14:00:00 20.9 9 Oeste 23 Sudoeste 0 -- -- 41
2017-09-12 13:00:00 19.3 10 Oeste 22 Oeste 0 -- -- 45
2017-09-12 12:00:00 18 11 Oeste 17 Oeste 0 -- -- 52
2017-09-12 11:00:00 15.4 8 Sudoeste 13 Oeste 0 -- -- 61
2017-09-12 10:00:00 13.7 5 Sudeste 9 Oeste 0 -- -- 71
2017-09-12 09:00:00 11.9 0 Calma 13 Norte 0 -- -- 77
2017-09-12 08:00:00 10 6 Norte 13 Norte 0 -- -- 83
2017-09-12 07:00:00 9.9 5 Nordeste 10 Este 0 -- -- 84
2017-09-12 06:00:00 11 2 Noroeste 10 Noroeste 0 -- -- 79
2017-09-12 05:00:00 12.4 8 Oeste 13 Noroeste 0 -- -- 74
2017-09-12 04:00:00 13.8 2 Noroeste 18 Oeste 0 -- -- 68
2017-09-12 03:00:00 16 15 Oeste 36 Oeste 0 -- -- 61
2017-09-12 02:00:00 16.6 23 Noroeste 40 Noroeste 0 -- -- 60
2017-09-12 01:00:00 16 10 Oeste 26 Noroeste 0 -- -- 63
2017-09-12 00:00:00 17.3 14 Oeste 44 Oeste 0 -- -- 57
2017-09-11 23:00:00 18.2 25 Oeste 37 Oeste 0 -- -- 54
2017-09-11 22:00:00 19.1 23 Oeste 33 Oeste 0 -- -- 51
2017-09-11 21:00:00 19.9 24 Oeste 42 Noroeste 0 -- -- 46
2017-09-11 20:00:00 21.3 25 Noroeste 67 Oeste 0 -- -- 40
2017-09-11 19:00:00 22.8 45 Oeste 67 Oeste 0 -- -- 31
2017-09-11 18:00:00 24.1 31 Oeste 58 Oeste 0 -- -- 32
2017-09-11 17:00:00 24.6 35 Oeste 55 Oeste 0 -- -- 32
2017-09-11 16:00:00 24.9 33 Oeste 56 Oeste 0 -- -- 35
2017-09-11 15:00:00 24.8 33 Oeste 54 Oeste 0 -- -- 39
2017-09-11 14:00:00 25.1 30 Oeste 51 Oeste 0 -- -- 38
2017-09-11 13:00:00 24.3 25 Oeste 43 Oeste 0 -- -- 40
2017-09-11 12:00:00 22.6 23 Oeste 38 Oeste 0 -- -- 51
2017-09-11 11:00:00 19.8 19 Oeste 31 Oeste 0 -- -- 60
2017-09-11 10:00:00 18.9 18 Noroeste 30 Noroeste 0 -- -- 64
2017-09-11 09:00:00 16.8 10 Oeste 22 Noroeste 0 -- -- 67
2017-09-11 08:00:00 12.6 8 Noroeste 13 Oeste 0 -- -- 75
2017-09-11 07:00:00 11.3 4 Este 24 Noroeste 0 -- -- 72
2017-09-11 06:00:00 12.2 16 Noroeste 21 Noroeste 0 -- -- 70
2017-09-11 05:00:00 12 10 Noroeste 13 Noroeste 0 -- -- 70
2017-09-11 04:00:00 12.3 12 Noroeste 21 Noroeste 0 -- -- 69
2017-09-11 03:00:00 12.8 13 Noroeste 15 Noroeste 0 -- -- 66
2017-09-11 02:00:00 12.5 8 Noroeste 19 Noroeste 0 -- -- 68
2017-09-11 01:00:00 13.2 14 Noroeste 19 Noroeste 0 -- -- 64
2017-09-11 00:00:00 14.7 13 Noroeste 23 Noroeste 0 -- -- 59
2017-09-10 23:00:00 15.6 15 Noroeste 22 Oeste 0 -- -- 55
2017-09-10 22:00:00 15.5 15 Noroeste 26 Noroeste 0 -- -- 54
2017-09-10 21:00:00 16.3 16 Noroeste 26 Oeste 0 -- -- 50
2017-09-10 20:00:00 18.5 20 Oeste 42 Oeste 0 -- -- 46
2017-09-10 19:00:00 21.2 19 Oeste 37 Oeste 0 -- -- 38
2017-09-10 18:00:00 22.4 17 Noroeste 37 Oeste 0 -- -- 28
2017-09-10 17:00:00 22.4 19 Oeste 34 Noroeste 0 -- -- 32
2017-09-10 16:00:00 22.7 19 Norte 46 Noroeste 0 -- -- 26
2017-09-10 15:00:00 21.9 10 Noroeste 30 Oeste 0 -- -- 28
2017-09-10 14:00:00 21.3 12 Noroeste 35 Oeste 0 -- -- 30
2017-09-10 13:00:00 19.8 12 Noroeste 41 Oeste 0 -- -- 34
2017-09-10 12:00:00 17.6 18 Oeste 31 Oeste 0 -- -- 42
2017-09-10 11:00:00 14.8 15 Oeste 27 Oeste 0 -- -- 53
2017-09-10 10:00:00 13.2 14 Oeste 26 Oeste 0 -- -- 59
2017-09-10 09:00:00 12.2 10 Oeste 16 Oeste 0 -- -- 60
2017-09-10 08:00:00 9.8 9 Noroeste 20 Noroeste 0 -- -- 66
2017-09-10 07:00:00 8.6 15 Noroeste 19 Noroeste 0 -- -- 72
2017-09-10 06:00:00 8.8 11 Noroeste 21 Noroeste 0 -- -- 72
2017-09-10 05:00:00 9.5 15 Oeste 21 Oeste 0 -- -- 71
2017-09-10 04:00:00 9.7 12 Noroeste 17 Noroeste 0 -- -- 70
2017-09-10 03:00:00 7.9 8 Noroeste 20 Noroeste 0 -- -- 83
2017-09-10 02:00:00 9.5 8 Norte 14 Oeste 0 -- -- 78
2017-09-10 01:00:00 10.2 5 Norte 15 Oeste 0 -- -- 78
2017-09-10 00:00:00 11.5 5 Oeste 12 Nordeste 0 -- -- 73
2017-09-09 23:00:00 12.3 9 Nordeste 17 Nordeste 0 -- -- 68
2017-09-09 22:00:00 12.9 12 Nordeste 19 Este 0 -- -- 66
2017-09-09 21:00:00 15.2 5 Nordeste 36 Oeste 0 -- -- 56
2017-09-09 20:00:00 17.8 21 Oeste 38 Oeste 0 -- -- 46
2017-09-09 19:00:00 19.3 21 Oeste 32 Oeste 0 -- -- 43
2017-09-09 18:00:00 20.8 14 Oeste 29 Sudoeste 0 -- -- 42
2017-09-09 17:00:00 19.7 8 Sur 21 Oeste 0 -- -- 44
2017-09-09 16:00:00 18.9 12 Sudoeste 26 Sudoeste 0 -- -- 51
2017-09-09 15:00:00 17.1 14 Oeste 22 Oeste 0 -- -- 61
2017-09-09 14:00:00 15.8 8 Noroeste 18 Oeste 0 -- -- 74
2017-09-09 13:00:00 15.3 8 Oeste 12 Oeste 0 -- -- 77
2017-09-09 12:00:00 14.3 8 Oeste 14 Noroeste 1.2 -- -- 85
2017-09-09 11:00:00 13.7 8 Noroeste 14 Noroeste 2.2 -- -- 83
2017-09-09 10:00:00 16 6 Noroeste 14 Noroeste 0 -- -- 58
2017-09-09 09:00:00 15.5 12 Noroeste 20 Oeste 0 -- -- 52
2017-09-09 08:00:00 13.7 2 Sur 12 Norte 0 -- -- 66
2017-09-09 07:00:00 12.9 4 Norte 8 Norte 0 -- -- 63
2017-09-09 06:00:00 12.9 4 Este 8 Norte 0 -- -- 61
2017-09-09 05:00:00 12.3 6 Norte 10 Noroeste 0 -- -- 64
2017-09-09 04:00:00 13.1 9 Norte 11 Norte 0 -- -- 62
2017-09-09 03:00:00 12.7 4 Noroeste 9 Norte 0 -- -- 60
2017-09-09 02:00:00 12.9 6 Norte 10 Norte 0 -- -- 60
2017-09-09 01:00:00 13.3 7 Norte 10 Norte 0 -- -- 57
2017-09-09 00:00:00 13.6 4 Nordeste 10 Norte 0 -- -- 54
2017-09-08 23:00:00 13.7 5 Norte 12 Norte 0 -- -- 54
2017-09-08 22:00:00 14.8 8 Norte 13 Norte 0 -- -- 48
2017-09-08 21:00:00 17.6 3 Norte 13 Oeste 0 -- -- 42
2017-09-08 20:00:00 23.3 4 Sur 15 Sudoeste 0 -- -- 30
2017-09-08 19:00:00 24.9 11 Oeste 20 Oeste 0 -- -- 27
2017-09-08 18:00:00 25.5 9 Oeste 24 Sudoeste 0 -- -- 30
2017-09-08 17:00:00 24.7 10 Oeste 28 Oeste 0 -- -- 32
2017-09-08 16:00:00 24.2 12 Sudoeste 25 Sudoeste 0 -- -- 36
2017-09-08 15:00:00 23.5 13 Oeste 28 Sudoeste 0 -- -- 40
2017-09-08 14:00:00 23.3 12 Oeste 22 Oeste 0 -- -- 32
2017-09-08 13:00:00 22 10 Sudoeste 20 Sur 0 -- -- 41
2017-09-08 12:00:00 21.2 4 Oeste 9 Sudoeste 0 -- -- 42
2017-09-08 11:00:00 20.1 5 Este 10 Este 0 -- -- 39
2017-09-08 10:00:00 18.4 2 Sur 5 Este 0 -- -- 46
2017-09-08 09:00:00 15.2 2 Sudeste 9 Norte 0 -- -- 57
2017-09-08 08:00:00 9.6 0 Calma 9 Norte 0 -- -- 77
2017-09-08 07:00:00 9.7 3 Norte 10 Norte 0 -- -- 81
2017-09-08 06:00:00 10.1 9 Norte 13 Norte 0 -- -- 79
2017-09-08 05:00:00 10.9 9 Norte 12 Norte 0 -- -- 75
2017-09-08 04:00:00 11.3 6 Norte 10 Norte 0 -- -- 74
2017-09-08 03:00:00 12 4 Norte 8 Norte 0 -- -- 70
2017-09-08 02:00:00 12.8 3 Nordeste 10 Norte 0 -- -- 69
2017-09-08 01:00:00 14 6 Este 9 Este 0 -- -- 64
2017-09-08 00:00:00 13.7 5 Norte 10 Norte 0 -- -- 65
2017-09-07 23:00:00 15.2 3 Nordeste 10 Nordeste 0 -- -- 61
2017-09-07 22:00:00 16.5 5 Este 10 Este 0 -- -- 56
2017-09-07 21:00:00 19 5 Este 10 Sudeste 0 -- -- 48
2017-09-07 20:00:00 21.3 7 Sudoeste 20 Sudoeste 0 -- -- 44
2017-09-07 19:00:00 23.7 10 Sudoeste 21 Sudoeste 0 -- -- 38
2017-09-07 18:00:00 24.5 10 Oeste 18 Oeste 0 -- -- 37
2017-09-07 17:00:00 23.8 11 Sudoeste 27 Oeste 0 -- -- 39
2017-09-07 16:00:00 22.8 13 Oeste 26 Oeste 0 -- -- 46
2017-09-07 15:00:00 22.5 15 Oeste 27 Oeste 0 -- -- 48
2017-09-07 14:00:00 22.2 13 Oeste 24 Oeste 0 -- -- 50
2017-09-07 13:00:00 21.8 8 Oeste 16 Oeste 0 -- -- 53
2017-09-07 12:00:00 20.3 8 Oeste 18 Oeste 0 -- -- 55
2017-09-07 11:00:00 18.5 4 Oeste 10 Sudoeste 0 -- -- 59
2017-09-07 10:00:00 16.8 6 Este 10 Este 0 -- -- 63
2017-09-07 09:00:00 14.6 3 Este 9 Este 0 -- -- 73
2017-09-07 08:00:00 10.8 4 Sudeste 8 Norte 0 -- -- 89
2017-09-07 07:00:00 10.6 4 Norte 9 Este 0 -- -- 88
2017-09-07 06:00:00 11.5 4 Este 9 Sudeste 0 -- -- 85
2017-09-07 05:00:00 13 7 Sudeste 12 Este 0 -- -- 80
2017-09-07 04:00:00 14 8 Este 12 Este 0 -- -- 78
2017-09-07 03:00:00 14.4 3 Este 10 Sudeste 0 -- -- 79
2017-09-07 02:00:00 15.1 7 Este 12 Este 0 -- -- 77
2017-09-07 01:00:00 16.1 6 Sudeste 13 Este 0 -- -- 71
2017-09-07 00:00:00 16.5 7 Este 12 Este 0 -- -- 70
2017-09-06 23:00:00 16.8 3 Nordeste 9 Este 0 -- -- 69
2017-09-06 22:00:00 17.7 3 Este 10 Norte 0 -- -- 66
2017-09-06 21:00:00 21.3 2 Sudoeste 13 Sudoeste 0 -- -- 55
2017-09-06 20:00:00 23.8 12 Sudoeste 28 Oeste 0 -- -- 48
2017-09-06 19:00:00 26.4 16 Sudoeste 31 Oeste 0 -- -- 43
2017-09-06 18:00:00 27.4 16 Oeste 33 Sudoeste 0 -- -- 41
2017-09-06 17:00:00 27 17 Oeste 31 Oeste 0 -- -- 45
2017-09-06 16:00:00 27 12 Sudoeste 28 Sur 0 -- -- 47
2017-09-06 15:00:00 26.3 14 Sudoeste 27 Sudoeste 0 -- -- 50
2017-09-06 14:00:00 24.9 8 Sudoeste 22 Sudeste 0 -- -- 57
2017-09-06 13:00:00 24.2 9 Sur 22 Sur 0 -- -- 62
2017-09-06 12:00:00 24 9 Sudeste 19 Este 0 -- -- 65
2017-09-06 11:00:00 20.9 9 Sudeste 14 Sudeste 0 -- -- 74
2017-09-06 10:00:00 21.5 6 Sudeste 11 Sudeste 0 -- -- 70
2017-09-06 09:00:00 17.2 0 Calma 6 Norte 0 -- -- 87
2017-09-06 08:00:00 15.5 6 Norte 12 Norte 0 -- -- 90
2017-09-06 07:00:00 15.3 7 Norte 8 Norte 0 -- -- 91
2017-09-06 06:00:00 16.3 4 Sudeste 9 Norte 0 -- -- 87
2017-09-06 05:00:00 16.3 5 Norte 9 Norte 0 -- -- 86
2017-09-06 04:00:00 16.8 4 Norte 9 Noroeste 0 -- -- 84
2017-09-06 03:00:00 17.3 5 Nordeste 9 Nordeste 0 -- -- 80
2017-09-06 02:00:00 17.9 4 Nordeste 9 Norte 0 -- -- 72
2017-09-06 01:00:00 18 4 Norte 10 Norte 0 -- -- 68
2017-09-06 00:00:00 18.4 6 Norte 11 Norte 0 -- -- 65
2017-09-05 23:00:00 19.4 6 Norte 9 Noroeste 0 -- -- 62
2017-09-05 22:00:00 21.1 7 Noroeste 10 Oeste 0 -- -- 58
2017-09-05 21:00:00 23.9 8 Oeste 17 Oeste 0 -- -- 50
2017-09-05 20:00:00 26.3 13 Oeste 21 Oeste 0 -- -- 45
2017-09-05 19:00:00 27.6 15 Sudoeste 26 Sudoeste 0 -- -- 45
2017-09-05 18:00:00 28.7 13 Oeste 28 Sudoeste 0 -- -- 39
2017-09-05 17:00:00 29.4 6 Oeste 21 Oeste 0 -- -- 39
2017-09-05 16:00:00 28.4 8 Noroeste 26 Oeste 0 -- -- 39
2017-09-05 15:00:00 27.2 8 Oeste 24 Sudoeste 0 -- -- 42
2017-09-05 14:00:00 26.2 15 Sudoeste 23 Sudoeste 0 -- -- 44
2017-09-05 13:00:00 24.5 9 Oeste 19 Sudoeste 0 -- -- 49
2017-09-05 12:00:00 25.1 8 Sudoeste 15 Sudoeste 0 -- -- 54
2017-09-05 11:00:00 24.1 5 Este 14 Este 0 -- -- 60
2017-09-05 10:00:00 22.2 5 Sudeste 10 Sudeste 0 -- -- 67
2017-09-05 09:00:00 19.7 2 Noroeste 7 Norte 0 -- -- 78
2017-09-05 08:00:00 15.4 5 Noroeste 8 Norte 0 -- -- 91
2017-09-05 07:00:00 15.5 7 Norte 10 Norte 0 -- -- 91
2017-09-05 06:00:00 16.5 5 Norte 10 Norte 0 -- -- 89
2017-09-05 05:00:00 15.6 7 Norte 10 Norte 0 -- -- 91
2017-09-05 04:00:00 16.5 6 Norte 10 Norte 0 -- -- 88
2017-09-05 03:00:00 15.7 6 Norte 10 Norte 0 -- -- 90
2017-09-05 02:00:00 16.6 5 Norte 10 Este 0 -- -- 88
2017-09-05 01:00:00 18.2 7 Este 10 Este 0 -- -- 83
2017-09-05 00:00:00 19.1 6 Sudeste 10 Sudeste 0 -- -- 78
2017-09-04 23:00:00 20 5 Sudeste 13 Sur 0 -- -- 75
2017-09-04 22:00:00 20.8 8 Sudeste 19 Sudeste 0 -- -- 70
2017-09-04 21:00:00 21.6 9 Sudeste 19 Sur 0 -- -- 66
2017-09-04 20:00:00 23.1 8 Sur 27 Sur 0 -- -- 60
2017-09-04 19:00:00 22.9 12 Sudeste 33 Sudeste 0 -- -- 60
2017-09-04 18:00:00 24.1 17 Sudeste 35 Sudeste 0 -- -- 55
2017-09-04 17:00:00 26.8 9 Sur 26 Sudeste 0 -- -- 40
2017-09-04 16:00:00 26.3 12 Sudeste 23 Sur 0 -- -- 40
2017-09-04 15:00:00 26.6 10 Sur 24 Sur 0 -- -- 40
2017-09-04 14:00:00 26.1 12 Sudeste 21 Este 0 -- -- 39
2017-09-04 13:00:00 25.9 10 Sur 21 Sudeste 0 -- -- 42
2017-09-04 12:00:00 24.5 11 Sudeste 21 Sur 0 -- -- 46
2017-09-04 11:00:00 24 5 Nordeste 11 Este 0 -- -- 46
2017-09-04 10:00:00 21.3 5 Sudoeste 9 Nordeste 0 -- -- 54
2017-09-04 09:00:00 19.9 3 Este 8 Nordeste 0 -- -- 60
2017-09-04 08:00:00 14.7 2 Este 13 Nordeste 0 -- -- 78
2017-09-04 07:00:00 15.5 4 Sur 12 Nordeste 0 -- -- 74
2017-09-04 06:00:00 14.7 3 Oeste 14 Norte 0 -- -- 83
2017-09-04 05:00:00 14.8 6 Norte 13 Norte 0 -- -- 79
2017-09-04 04:00:00 14.2 6 Norte 11 Norte 0 -- -- 82
2017-09-04 03:00:00 15.5 5 Oeste 15 Nordeste 0 -- -- 80
2017-09-04 02:00:00 15.5 15 Este 19 Este 0.4 -- -- 77
2017-09-04 01:00:00 17.7 6 Este 14 Nordeste 0 -- -- 58
2017-09-04 00:00:00 19.1 7 Sudeste 14 Sudeste 0 -- -- 48
2017-09-03 23:00:00 19.5 3 Sur 8 Este 0 -- -- 49
2017-09-03 22:00:00 18.5 5 Norte 8 Norte 0 -- -- 49
2017-09-03 21:00:00 21.2 4 Sudeste 17 Oeste 0 -- -- 39
2017-09-03 20:00:00 22.7 14 Oeste 30 Oeste 0 -- -- 38
2017-09-03 19:00:00 24.1 14 Oeste 30 Sudoeste 0 -- -- 34
2017-09-03 18:00:00 25 13 Sudoeste 27 Oeste 0 -- -- 32
2017-09-03 17:00:00 24.9 15 Oeste 32 Oeste 0 -- -- 34
2017-09-03 16:00:00 24.7 13 Noroeste 29 Oeste 0 -- -- 33
2017-09-03 15:00:00 22.7 14 Oeste 24 Oeste 0 -- -- 36
2017-09-03 14:00:00 22.4 14 Oeste 24 Oeste 0 -- -- 34
2017-09-03 13:00:00 21.9 10 Oeste 23 Oeste 0 -- -- 35
2017-09-03 12:00:00 19 5 Sur 14 Sur 0 -- -- 49
2017-09-03 11:00:00 16.3 6 Este 18 Este 0 -- -- 52
2017-09-03 10:00:00 15.4 4 Este 6 Este 0 -- -- 57
2017-09-03 09:00:00 13.2 2 Noroeste 6 Nordeste 0 -- -- 65
2017-09-03 08:00:00 10.7 4 Norte 10 Norte 0 -- -- 72
2017-09-03 07:00:00 9.4 8 Norte 10 Norte 0 -- -- 78
2017-09-03 06:00:00 11.1 2 Noroeste 5 Sudeste 0 -- -- 73
2017-09-03 05:00:00 12.4 5 Este 11 Este 0 -- -- 62
2017-09-03 04:00:00 12.4 7 Este 10 Este 0 -- -- 70
2017-09-03 03:00:00 13 5 Este 10 Este 0 -- -- 69
2017-09-03 02:00:00 12.6 8 Este 10 Este 0 -- -- 68
2017-09-03 01:00:00 12.4 4 Este 10 Norte 0 -- -- 69
2017-09-03 00:00:00 12.6 5 Norte 10 Norte 0 -- -- 68
2017-09-02 23:00:00 13.6 4 Nordeste 10 Norte 0 -- -- 67
2017-09-02 22:00:00 15.1 4 Este 7 Sudeste 0 -- -- 59
2017-09-02 21:00:00 18.3 5 Este 12 Sudeste 0 -- -- 50
2017-09-02 20:00:00 22.8 6 Sudoeste 29 Sudoeste 0 -- -- 38
2017-09-02 19:00:00 23.9 13 Sudoeste 33 Sudoeste 0 -- -- 36
2017-09-02 18:00:00 24 15 Sudoeste 31 Sudoeste 0 -- -- 35
2017-09-02 17:00:00 24.4 17 Oeste 28 Oeste 0 -- -- 28
2017-09-02 16:00:00 24.3 8 Noroeste 28 Sudoeste 0 -- -- 28
2017-09-02 15:00:00 22.6 14 Noroeste 32 Oeste 0 -- -- 29
2017-09-02 14:00:00 21.2 13 Oeste 30 Oeste 0 -- -- 33
2017-09-02 13:00:00 20.6 9 Sudoeste 22 Sudoeste 0 -- -- 34
2017-09-02 12:00:00 18.6 14 Oeste 23 Oeste 0 -- -- 36
2017-09-02 11:00:00 17.6 12 Oeste 18 Oeste 0 -- -- 38
2017-09-02 10:00:00 17.4 7 Oeste 11 Oeste 0 -- -- 39
2017-09-02 09:00:00 14.8 4 Noroeste 12 Norte 0 -- -- 50
2017-09-02 08:00:00 8.7 8 Noroeste 14 Norte 0 -- -- 62
2017-09-02 07:00:00 8.6 10 Norte 15 Norte 0 -- -- 64
2017-09-02 06:00:00 8.4 12 Norte 17 Norte 0 -- -- 66
2017-09-02 05:00:00 9.9 8 Noroeste 12 Norte 0 -- -- 65
2017-09-02 04:00:00 10.4 9 Norte 14 Noroeste 0 -- -- 66
2017-09-02 03:00:00 11.7 6 Noroeste 17 Oeste 0 -- -- 64
2017-09-02 02:00:00 14.1 12 Noroeste 20 Noroeste 0 -- -- 59
2017-09-02 01:00:00 12.1 9 Noroeste 13 Oeste 0 -- -- 65
2017-09-02 00:00:00 13.2 9 Noroeste 14 Norte 0 -- -- 61
2017-09-01 23:00:00 14.1 5 Norte 18 Noroeste 0 -- -- 57
2017-09-01 22:00:00 17 16 Noroeste 22 Noroeste 0 -- -- 48
2017-09-01 21:00:00 18 13 Noroeste 31 Oeste 0 -- -- 47
2017-09-01 20:00:00 21.1 14 Oeste 37 Oeste 0 -- -- 38
2017-09-01 19:00:00 22.3 23 Oeste 41 Sudoeste 0 -- -- 35
2017-09-01 18:00:00 23.5 19 Oeste 40 Oeste 0 -- -- 34
2017-09-01 17:00:00 23.8 18 Sudoeste 33 Sudoeste 0 -- -- 34
2017-09-01 16:00:00 23.5 19 Oeste 31 Noroeste 0 -- -- 32
2017-09-01 15:00:00 22.8 14 Oeste 32 Oeste 0 -- -- 33
2017-09-01 14:00:00 20.8 16 Oeste 28 Oeste 0 -- -- 41
2017-09-01 13:00:00 19.7 15 Oeste 22 Sudoeste 0 -- -- 45
2017-09-01 12:00:00 19.1 10 Oeste 21 Oeste 0 -- -- 44
2017-09-01 11:00:00 17.6 11 Noroeste 18 Noroeste 0 -- -- 57
2017-09-01 10:00:00 17.6 3 Sudoeste 10 Sur 0 -- -- 59
2017-09-01 09:00:00 15.6 7 Este 10 Este 0 -- -- 67
2017-09-01 08:00:00 12.3 6 Este 10 Este 0 -- -- 77
2017-09-01 07:00:00 12.7 3 Sudeste 6 Sudeste 0 -- -- 73
2017-09-01 06:00:00 12.8 3 Nordeste 9 Oeste 0 -- -- 71
2017-09-01 05:00:00 12.6 3 Sur 10 Norte 0 -- -- 71
2017-09-01 04:00:00 11.7 7 Norte 11 Norte 0 -- -- 71
2017-09-01 03:00:00 12.4 5 Norte 10 Norte 0 -- -- 74
2017-09-01 02:00:00 12.1 7 Norte 10 Norte 0 -- -- 79
2017-09-01 01:00:00 13 6 Noroeste 12 Noroeste 0 -- -- 75
2017-09-01 00:00:00 13.3 5 Noroeste 10 Sudoeste 0 -- -- 77
2017-08-31 23:00:00 15.2 4 Norte 8 Norte 0 -- -- 73
2017-08-31 22:00:00 17.3 4 Este 13 Sudeste 0 -- -- 65
2017-08-31 21:00:00 19.2 3 Sudeste 17 Sur 0 -- -- 59
2017-08-31 20:00:00 21.9 13 Sudoeste 26 Oeste 0 -- -- 50
2017-08-31 19:00:00 23.7 12 Sudoeste 29 Oeste 0 -- -- 46
2017-08-31 18:00:00 23.6 18 Oeste 42 Oeste 0 -- -- 48
2017-08-31 17:00:00 24 15 Oeste 31 Oeste 0 -- -- 45
2017-08-31 16:00:00 23.9 14 Oeste 30 Oeste 0 -- -- 47
2017-08-31 15:00:00 22 13 Oeste 28 Noroeste 0 -- -- 55
2017-08-31 14:00:00 20.3 14 Oeste 28 Noroeste 0 -- -- 68
2017-08-31 13:00:00 20.5 22 Oeste 39 Oeste 0 -- -- 71
2017-08-31 12:00:00 20.9 4 Sur 13 Este 0 -- -- 72
2017-08-31 11:00:00 20.1 6 Sudeste 15 Este 0 -- -- 79
2017-08-31 10:00:00 18.4 2 Sudeste 7 Sur 0 -- -- 87
2017-08-31 09:00:00 16.7 4 Este 7 Sudeste 0 -- -- 93
2017-08-31 08:00:00 16.1 7 Este 12 Este 0 -- -- 94
2017-08-31 07:00:00 15.9 8 Este 10 Este 0 -- -- 92
2017-08-31 06:00:00 15.8 2 Nordeste 5 Norte 0 -- -- 91
2017-08-31 05:00:00 16.2 4 Este 9 Oeste 0 -- -- 93
2017-08-31 04:00:00 16.8 5 Noroeste 11 Norte 0 -- -- 91
2017-08-31 03:00:00 16.4 6 Norte 13 Este 0 -- -- 93
2017-08-31 02:00:00 16.2 9 Este 13 Este 0 -- -- 92
2017-08-31 01:00:00 17 8 Noroeste 14 Noroeste 0 -- -- 92
2017-08-31 00:00:00 15.8 8 Norte 10 Norte 0 -- -- 90
2017-08-30 23:00:00 18 7 Oeste 14 Noroeste 0 -- -- 88
2017-08-30 22:00:00 18.2 0 Calma 17 Este 0.2 -- -- 89
2017-08-30 21:00:00 18.8 12 Este 18 Este 0.2 -- -- 83
2017-08-30 20:00:00 21.9 8 Oeste 17 Sudoeste 0 -- -- 61
2017-08-30 19:00:00 22.6 10 Sudoeste 20 Sudoeste 0 -- -- 55
2017-08-30 18:00:00 23.5 8 Sur 23 Sudoeste 0 -- -- 52
2017-08-30 17:00:00 24.3 14 Sudoeste 28 Sur 0 -- -- 50
2017-08-30 16:00:00 26 14 Sur 27 Sudeste 0 -- -- 44
2017-08-30 15:00:00 24.8 15 Sur 30 Sur 0 -- -- 47
2017-08-30 14:00:00 25.8 14 Sudeste 31 Sudeste 0 -- -- 46
2017-08-30 13:00:00 25.4 11 Sudeste 25 Este 0 -- -- 46
2017-08-30 12:00:00 24.4 9 Nordeste 24 Este 0 -- -- 49
2017-08-30 11:00:00 22.3 9 Este 21 Este 0 -- -- 59
2017-08-30 10:00:00 20.5 7 Sudeste 11 Sudeste 0 -- -- 65
2017-08-30 09:00:00 18 8 Este 16 Nordeste 0 -- -- 70
2017-08-30 08:00:00 16.6 5 Este 22 Este 0 -- -- 75
2017-08-30 07:00:00 17.2 19 Este 27 Este 0 -- -- 70
2017-08-30 06:00:00 17.2 18 Este 24 Nordeste 0 -- -- 73
2017-08-30 05:00:00 16.9 14 Este 19 Este 0.2 -- -- 74
2017-08-30 04:00:00 18.1 7 Sudeste 14 Sudeste 0 -- -- 64
2017-08-30 03:00:00 17.7 6 Nordeste 12 Nordeste 0 -- -- 64
2017-08-30 02:00:00 15.6 9 Norte 15 Norte 0 -- -- 71
2017-08-30 01:00:00 16 9 Norte 14 Norte 0 -- -- 74
2017-08-30 00:00:00 19.1 4 Noroeste 32 Este 0 -- -- 60
2017-08-29 23:00:00 18.6 11 Este 18 Nordeste 0 -- -- 70
2017-08-29 22:00:00 18.6 12 Nordeste 19 Sudeste 0 -- -- 73
2017-08-29 21:00:00 20.3 11 Sudeste 23 Sudeste 0.4 -- -- 68
2017-08-29 20:00:00 22.2 9 Sudeste 23 Sudeste 0 -- -- 58
2017-08-29 19:00:00 23.1 15 Sudeste 40 Sudeste 0 -- -- 58
2017-08-29 18:00:00 24.8 18 Sudeste 34 Sudeste 0 -- -- 51
2017-08-29 17:00:00 25.9 21 Sudeste 38 Sudeste 0 -- -- 45
2017-08-29 16:00:00 27.4 13 Sudeste 23 Sur 0 -- -- 42
2017-08-29 15:00:00 25.7 13 Sur 26 Sudeste 0 -- -- 48
2017-08-29 14:00:00 26.2 11 Sudeste 19 Sudeste 0 -- -- 51
2017-08-29 13:00:00 25.8 10 Sudeste 22 Sudeste 0 -- -- 54
2017-08-29 12:00:00 25.6 10 Sur 19 Sudeste 0 -- -- 55
2017-08-29 11:00:00 23.4 9 Sudeste 14 Este 0 -- -- 68
2017-08-29 10:00:00 20.6 6 Norte 12 Nordeste 0 -- -- 79
2017-08-29 09:00:00 18.8 6 Sudeste 14 Sudeste 0 -- -- 84
2017-08-29 08:00:00 16.8 4 Oeste 9 Norte 0 -- -- 88
2017-08-29 07:00:00 16.1 8 Norte 10 Norte 0 -- -- 87
2017-08-29 06:00:00 17.4 3 Norte 8 Norte 0 -- -- 87
2017-08-29 05:00:00 19.1 6 Noroeste 9 Norte 0 -- -- 84
2017-08-29 04:00:00 19.1 3 Noroeste 13 Noroeste 0 -- -- 87
2017-08-29 03:00:00 19 10 Noroeste 25 Noroeste 0 -- -- 88
2017-08-29 02:00:00 19.3 18 Oeste 30 Oeste 0 -- -- 85
2017-08-29 01:00:00 21.1 8 Sur 12 Nordeste 0 -- -- 72
2017-08-29 00:00:00 20.3 5 Norte 9 Sudeste 0.2 -- -- 82
2017-08-28 23:00:00 23.8 9 Sur 15 Sur 0 -- -- 58
2017-08-28 22:00:00 25.2 13 Este 21 Este 0 -- -- 47
2017-08-28 21:00:00 24.8 9 Este 15 Nordeste 0 -- -- 54
2017-08-28 20:00:00 26 11 Noroeste 28 Sur 0 -- -- 54
2017-08-28 19:00:00 28.5 15 Sur 34 Sudoeste 0 -- -- 39
2017-08-28 18:00:00 30.8 18 Sur 35 Sur 0 -- -- 34
2017-08-28 17:00:00 31.8 24 Sudeste 39 Sur 0 -- -- 28
2017-08-28 16:00:00 32.8 15 Sudeste 29 Sur 0 -- -- 32
2017-08-28 15:00:00 33.9 10 Este 26 Sur 0 -- -- 31
2017-08-28 14:00:00 32.8 8 Este 22 Este 0 -- -- 31
2017-08-28 13:00:00 31.1 11 Este 21 Sudeste 0 -- -- 30
2017-08-28 12:00:00 27.9 8 Sudeste 17 Sudeste 0 -- -- 42
2017-08-28 11:00:00 24 6 Oeste 10 Oeste 0 -- -- 59
2017-08-28 10:00:00 22.8 4 Oeste 12 Nordeste 0 -- -- 63
2017-08-28 09:00:00 21.6 4 Nordeste 15 Este 0 -- -- 63
2017-08-28 08:00:00 18.1 6 Este 9 Este 0 -- -- 71
2017-08-28 07:00:00 17.9 0 Calma 13 Nordeste 0 -- -- 71
2017-08-28 06:00:00 17.7 7 Nordeste 14 Nordeste 0 -- -- 73
2017-08-28 05:00:00 16.5 9 Norte 12 Norte 0 -- -- 80
2017-08-28 04:00:00 17.1 8 Norte 12 Norte 0 -- -- 77
2017-08-28 03:00:00 16.9 9 Norte 12 Norte 0 -- -- 78
2017-08-28 02:00:00 17.4 9 Norte 12 Noroeste 0 -- -- 79
2017-08-28 01:00:00 19 4 Este 14 Norte 0 -- -- 72
2017-08-28 00:00:00 19 3 Norte 11 Nordeste 0 -- -- 74
2017-08-27 23:00:00 19 3 Este 9 Norte 0 -- -- 82
2017-08-27 22:00:00 19.4 5 Sudoeste 21 Noroeste 0 -- -- 80
2017-08-27 21:00:00 19.9 17 Noroeste 22 Oeste 0.6 -- -- 80
2017-08-27 20:00:00 20.6 16 Noroeste 26 Oeste 0.4 -- -- 79
2017-08-27 19:00:00 23.6 23 Oeste 44 Oeste 0 -- -- 61
2017-08-27 18:00:00 27.2 22 Oeste 36 Oeste 0 -- -- 44
2017-08-27 17:00:00 29.4 11 Sudoeste 27 Sudoeste 0 -- -- 37
2017-08-27 16:00:00 31.5 8 Sudoeste 23 Sudoeste 0 -- -- 31
2017-08-27 15:00:00 33.6 7 Este 21 Este 0 -- -- 28
2017-08-27 14:00:00 32.1 5 Nordeste 15 Sudeste 0 -- -- 28
2017-08-27 13:00:00 27.9 6 Noroeste 19 Oeste 0 -- -- 41
2017-08-27 12:00:00 25.4 14 Oeste 23 Oeste 0 -- -- 50
2017-08-27 11:00:00 27.5 9 Este 16 Este 0 -- -- 44
2017-08-27 10:00:00 24.1 6 Este 18 Este 0 -- -- 54
2017-08-27 09:00:00 23.1 8 Este 15 Este 0 -- -- 55
2017-08-27 08:00:00 18.7 10 Nordeste 19 Este 0 -- -- 65
2017-08-27 07:00:00 19.8 4 Sudoeste 10 Norte 0 -- -- 68
2017-08-27 06:00:00 19.8 5 Norte 13 Noroeste 0 -- -- 68
2017-08-27 05:00:00 21.9 10 Noroeste 19 Noroeste 0 -- -- 60
2017-08-27 04:00:00 21.7 6 Norte 18 Oeste 0 -- -- 62
2017-08-27 03:00:00 21.8 9 Nordeste 15 Norte 0 -- -- 56
2017-08-27 02:00:00 22.4 6 Sudoeste 10 Sudoeste 0 -- -- 61
2017-08-27 01:00:00 22.7 7 Noroeste 13 Sudoeste 0 -- -- 59
2017-08-27 00:00:00 23 4 Noroeste 21 Norte 0 -- -- 59
2017-08-26 23:00:00 22.8 12 Norte 25 Noroeste 0 -- -- 58
2017-08-26 22:00:00 22.2 17 Este 42 Sudeste 0.2 -- -- 61
2017-08-26 21:00:00 23.9 20 Sur 37 Sur 0 -- -- 71
2017-08-26 20:00:00 28.5 13 Sudoeste 26 Sudoeste 0 -- -- 43
2017-08-26 19:00:00 30.2 8 Sur 17 Sudeste 0 -- -- 37
2017-08-26 18:00:00 31.1 11 Sur 21 Sudeste 0 -- -- 28
2017-08-26 17:00:00 32.5 13 Sur 22 Sudeste 0 -- -- 28
2017-08-26 16:00:00 32.4 13 Sur 22 Sudeste 0 -- -- 27
2017-08-26 15:00:00 31.4 10 Sur 24 Sudeste 0 -- -- 27
2017-08-26 14:00:00 31.3 10 Sudeste 24 Sudeste 0 -- -- 26
2017-08-26 13:00:00 31.6 11 Sudeste 23 Este 0 -- -- 27
2017-08-26 12:00:00 29.7 11 Este 21 Este 0 -- -- 29
2017-08-26 11:00:00 27.9 10 Este 18 Sudeste 0 -- -- 34
2017-08-26 10:00:00 24.5 10 Sudeste 18 Sudeste 0 -- -- 41
2017-08-26 09:00:00 23.2 12 Este 20 Este 0 -- -- 44
2017-08-26 08:00:00 20.5 10 Este 21 Este 0 -- -- 49
2017-08-26 07:00:00 19.2 7 Sudeste 14 Este 0 -- -- 51
2017-08-26 06:00:00 19.1 11 Este 19 Este 0 -- -- 53
2017-08-26 05:00:00 22.6 17 Este 27 Nordeste 0 -- -- 42
2017-08-26 04:00:00 22.6 19 Este 32 Este 0 -- -- 43
2017-08-26 03:00:00 22.4 8 Este 19 Este 0 -- -- 43
2017-08-26 02:00:00 23 13 Este 21 Este 0 -- -- 42
2017-08-26 01:00:00 21.7 9 Nordeste 22 Este 0 -- -- 46
2017-08-26 00:00:00 22.5 18 Este 24 Este 0 -- -- 46
2017-08-25 23:00:00 23.5 15 Sudeste 25 Sudeste 0 -- -- 44
2017-08-25 22:00:00 24.3 10 Sudeste 26 Sudeste 0 -- -- 42
2017-08-25 21:00:00 25.5 17 Este 41 Sudeste 0 -- -- 39
2017-08-25 20:00:00 27.9 20 Sudeste 35 Sudeste 0 -- -- 33
2017-08-25 19:00:00 30.4 15 Sudeste 30 Sudeste 0 -- -- 32
2017-08-25 18:00:00 30.6 17 Sudeste 33 Sudeste 0 -- -- 34
2017-08-25 17:00:00 30.5 19 Sudeste 36 Sudeste 0 -- -- 33
2017-08-25 16:00:00 30.7 26 Este 39 Este 0 -- -- 30
2017-08-25 15:00:00 29.5 17 Sudeste 34 Sudeste 0 -- -- 29
2017-08-25 14:00:00 30.6 11 Sur 25 Sur 0 -- -- 25
2017-08-25 13:00:00 29 12 Sur 29 Sudeste 0 -- -- 28
2017-08-25 12:00:00 28.6 15 Sudeste 26 Sudeste 0 -- -- 28
2017-08-25 11:00:00 27.3 10 Sudeste 24 Este 0 -- -- 31
2017-08-25 10:00:00 26.2 12 Este 19 Sudeste 0 -- -- 30
2017-08-25 09:00:00 22.7 4 Este 13 Este 0 -- -- 39
2017-08-25 08:00:00 21.2 4 Este 15 Este 0 -- -- 37
2017-08-25 07:00:00 20 7 Este 12 Este 0 -- -- 35
2017-08-25 06:00:00 19.8 7 Este 9 Este 0 -- -- 36
2017-08-25 05:00:00 20.3 6 Este 10 Este 0 -- -- 34
2017-08-25 04:00:00 20.4 10 Este 15 Este 0 -- -- 35
2017-08-25 03:00:00 20.4 8 Este 17 Este 0 -- -- 37
2017-08-25 02:00:00 21.1 10 Este 13 Este 0 -- -- 39
2017-08-25 01:00:00 22.4 10 Este 20 Sudeste 0 -- -- 35
2017-08-25 00:00:00 22.8 12 Sudeste 31 Sudeste 0 -- -- 34
2017-08-24 23:00:00 24.1 18 Sudeste 28 Sudeste 0 -- -- 34
2017-08-24 22:00:00 24.8 19 Sudeste 32 Sudeste 0 -- -- 38
2017-08-24 21:00:00 25.8 15 Sudeste 26 Sudeste 0 -- -- 36
2017-08-24 20:00:00 28.8 16 Sudeste 31 Sudeste 0 -- -- 32
2017-08-24 19:00:00 30.5 15 Sur 30 Sudeste 0 -- -- 29
2017-08-24 18:00:00 31.3 15 Sudeste 27 Sudeste 0 -- -- 28
2017-08-24 17:00:00 30.3 15 Sudeste 29 Sur 0 -- -- 31
2017-08-24 16:00:00 30.8 15 Sudeste 29 Sur 0 -- -- 28
2017-08-24 15:00:00 30.2 15 Sudeste 28 Sudeste 0 -- -- 31
2017-08-24 14:00:00 29.3 15 Sudeste 30 Sudeste 0 -- -- 35
2017-08-24 13:00:00 29 11 Este 28 Sudeste 0 -- -- 41
2017-08-24 12:00:00 28.2 9 Este 22 Este 0 -- -- 46
2017-08-24 11:00:00 26.1 15 Este 23 Este 0 -- -- 50
2017-08-24 10:00:00 24.4 12 Este 20 Este 0 -- -- 57
2017-08-24 09:00:00 20.9 4 Norte 10 Noroeste 0 -- -- 73
2017-08-24 08:00:00 17.5 7 Noroeste 10 Oeste 0 -- -- 85
2017-08-24 07:00:00 18.2 3 Oeste 22 Nordeste 0 -- -- 81
2017-08-24 06:00:00 18.4 15 Nordeste 41 Este 0 -- -- 79
2017-08-24 05:00:00 18.3 24 Este 42 Este 0 -- -- 81
2017-08-24 04:00:00 18.5 19 Este 44 Noroeste 0.2 -- -- 76
2017-08-24 03:00:00 17.4 18 Noroeste 48 Oeste 1.6 -- -- 92
2017-08-24 02:00:00 20 26 Noroeste 45 Noroeste 0 -- -- 76
2017-08-24 01:00:00 22.1 12 Sudeste 19 Sudeste 0 -- -- 70
2017-08-24 00:00:00 22.8 9 Nordeste 14 Nordeste 0 -- -- 68
2017-08-23 23:00:00 23.4 6 Sudeste 13 Norte 0 -- -- 64
2017-08-23 22:00:00 24 9 Norte 18 Noroeste 0 -- -- 63
2017-08-23 21:00:00 24.9 6 Sur 16 Sudeste 0 -- -- 58
2017-08-23 20:00:00 27.1 6 Sudeste 17 Sudeste 0 -- -- 49
2017-08-23 19:00:00 28.2 10 Sudeste 29 Sur 0 -- -- 49
2017-08-23 18:00:00 28.7 18 Sur 35 Sur 0 -- -- 46
2017-08-23 17:00:00 31.6 14 Sur 31 Sudeste 0 -- -- 38
2017-08-23 16:00:00 31.8 16 Sur 32 Sudeste 0 -- -- 35
2017-08-23 15:00:00 31.7 14 Sur 27 Sur 0 -- -- 33
2017-08-23 14:00:00 30.3 18 Sudeste 30 Sudeste 0 -- -- 31
2017-08-23 13:00:00 30.5 16 Sudeste 27 Este 0 -- -- 31
2017-08-23 12:00:00 28.4 11 Sudeste 18 Sudeste 0 -- -- 45
2017-08-23 11:00:00 25.9 7 Sur 10 Sudeste 0 -- -- 55
2017-08-23 10:00:00 22.5 4 Oeste 14 Oeste 0 -- -- 66
2017-08-23 09:00:00 20.6 8 Noroeste 13 Noroeste 0 -- -- 75
2017-08-23 08:00:00 19.5 3 Norte 9 Norte 0 -- -- 73
2017-08-23 07:00:00 18.4 6 Norte 8 Este 0 -- -- 77
2017-08-23 06:00:00 19.8 7 Este 11 Este 0 -- -- 75
2017-08-23 05:00:00 20.4 3 Nordeste 12 Norte 0 -- -- 73
2017-08-23 04:00:00 20.6 10 Norte 13 Norte 0 -- -- 72
2017-08-23 03:00:00 21.7 8 Noroeste 24 Noroeste 0 -- -- 71
2017-08-23 02:00:00 22.3 6 Este 20 Nordeste 0 -- -- 69
2017-08-23 01:00:00 22.6 11 Este 14 Nordeste 0 -- -- 68
2017-08-23 00:00:00 23.4 4 Sudeste 20 Este 0 -- -- 67
2017-08-22 23:00:00 24.4 8 Sudeste 19 Sur 0 -- -- 65
2017-08-22 22:00:00 25.3 7 Sudeste 18 Sudeste 0 -- -- 59
2017-08-22 21:00:00 27.4 8 Sudeste 17 Sudeste 0 -- -- 48
2017-08-22 20:00:00 31 11 Sur 21 Sur 0 -- -- 37
2017-08-22 19:00:00 32.3 12 Sur 25 Sudoeste 0 -- -- 33
2017-08-22 18:00:00 32.9 12 Sudoeste 26 Sudoeste 0 -- -- 31
2017-08-22 17:00:00 33.5 12 Sur 24 Sur 0 -- -- 28
2017-08-22 16:00:00 33.4 14 Sur 25 Sur 0 -- -- 27
2017-08-22 15:00:00 33.3 8 Sudoeste 24 Este 0 -- -- 29
2017-08-22 14:00:00 32.6 8 Este 22 Sudeste 0 -- -- 31
2017-08-22 13:00:00 31.1 11 Sudeste 21 Este 0 -- -- 32
2017-08-22 12:00:00 30.1 6 Sur 26 Este 0 -- -- 33
2017-08-22 11:00:00 28.8 8 Sudeste 17 Sudeste 0 -- -- 33
2017-08-22 10:00:00 27.2 6 Este 10 Este 0 -- -- 42
2017-08-22 09:00:00 23.3 2 Sudoeste 7 Este 0 -- -- 64
2017-08-22 08:00:00 17.7 5 Norte 12 Norte 0 -- -- 77
2017-08-22 07:00:00 16.5 8 Norte 12 Norte 0 -- -- 89
2017-08-22 06:00:00 16.6 6 Norte 10 Norte 0 -- -- 89
2017-08-22 05:00:00 17.1 5 Norte 9 Norte 0 -- -- 89
2017-08-22 04:00:00 17.2 6 Norte 12 Noroeste 0 -- -- 85
2017-08-22 03:00:00 17.4 8 Norte 12 Norte 0 -- -- 78
2017-08-22 02:00:00 17.9 8 Norte 10 Norte 0 -- -- 77
2017-08-22 01:00:00 19 4 Nordeste 9 Norte 0 -- -- 73
2017-08-22 00:00:00 19 7 Norte 10 Norte 0 -- -- 63